Time;durP1;ratioP1;P1;durP2;ratioP2;P2;SDS_P1;SDS_P2;PMS_P1;PMS_P2;Temp;Humidity;BMP_temperature;BMP_pressure;BME280_temperature;BME280_humidity;BME280_pressure;Samples;Min_cycle;Max_cycle;Signal;HPM_P1;HPM_P2
2022/02/17 00:00:35;;;;;;;0.57;0.57;;;;;;;11.49;87.31;97942.00;5076985;28;20094;-20
2022/02/17 00:03:00;;;;;;;0.93;0.60;;;;;;;11.47;87.94;97939.44;5070478;28;20490;-19
2022/02/17 00:05:27;;;;;;;0.88;0.50;;;;;;;11.50;87.68;97935.78;5069662;28;20237;-20
2022/02/17 00:07:52;;;;;;;3.03;0.50;;;;;;;11.49;88.58;97937.59;5068437;28;20084;-20
2022/02/17 00:10:23;;;;;;;0.47;0.47;;;;;;;11.48;88.60;97906.88;5068464;28;20403;-20
2022/02/17 00:12:48;;;;;;;0.80;0.50;;;;;;;11.51;87.88;97892.63;5072667;28;20108;-20
2022/02/17 00:15:14;;;;;;;0.40;0.40;;;;;;;11.52;87.98;97881.13;5074020;28;20099;-20
2022/02/17 00:17:39;;;;;;;0.40;0.40;;;;;;;11.52;87.94;97881.13;5075130;28;20034;-20
2022/02/17 00:20:05;;;;;;;0.45;0.45;;;;;;;11.53;88.32;97882.81;5073618;28;20107;-21
2022/02/17 00:22:31;;;;;;;0.30;0.30;;;;;;;11.53;88.19;97919.78;5070863;28;20592;-21
2022/02/17 00:24:56;;;;;;;0.88;0.50;;;;;;;11.56;88.85;97903.78;5067943;28;20035;-19
2022/02/17 00:27:22;;;;;;;1.60;0.60;;;;;;;11.52;88.61;97892.56;5067979;28;20028;-20
2022/02/17 00:29:47;;;;;;;1.50;0.50;;;;;;;11.55;87.75;97900.25;5070328;28;20053;-22
2022/02/17 00:32:13;;;;;;;0.30;0.30;;;;;;;11.54;88.40;97892.47;5071215;28;20426;-22
2022/02/17 00:34:38;;;;;;;0.40;0.40;;;;;;;11.55;88.32;97880.97;5072978;28;21091;-23
2022/02/17 00:37:04;;;;;;;1.27;0.50;;;;;;;11.54;88.39;97858.16;5076187;28;20479;-22
2022/02/17 00:39:31;;;;;;;0.68;0.43;;;;;;;11.54;88.41;97847.59;5073461;28;20176;-22
2022/02/17 00:41:56;;;;;;;0.30;0.30;;;;;;;11.55;87.71;97833.44;5069246;28;20020;-22
2022/02/17 00:44:22;;;;;;;0.30;0.30;;;;;;;11.55;88.11;97873.88;5068680;28;20028;-22
2022/02/17 00:46:48;;;;;;;0.38;0.38;;;;;;;11.56;88.51;97856.25;5068863;28;20025;-22
2022/02/17 00:49:14;;;;;;;0.28;0.28;;;;;;;11.57;88.70;97863.22;5066890;28;20070;-22
2022/02/17 00:51:39;;;;;;;0.43;0.43;;;;;;;11.59;87.95;97869.28;5068539;28;20103;-23
2022/02/17 00:54:05;;;;;;;0.40;0.40;;;;;;;11.57;88.90;97863.22;5070104;28;20078;-21
2022/02/17 00:56:30;;;;;;;0.80;0.38;;;;;;;11.58;88.16;97874.66;5068409;28;20021;-23
2022/02/17 00:58:56;;;;;;;0.40;0.40;;;;;;;11.59;88.38;97850.81;5067296;28;20537;-22
2022/02/17 01:01:21;;;;;;;1.30;1.13;;;;;;;11.59;87.91;97847.31;5069383;28;20032;-22
2022/02/17 01:03:46;;;;;;;0.88;0.40;;;;;;;11.60;88.39;97857.78;5066135;28;20028;-23
2022/02/17 01:06:12;;;;;;;0.52;0.52;;;;;;;11.61;87.49;97869.19;5067919;28;20083;-22
2022/02/17 01:08:38;;;;;;;0.50;0.50;;;;;;;11.62;87.46;97855.91;5067393;28;20032;-22
2022/02/17 01:11:03;;;;;;;0.40;0.40;;;;;;;11.64;87.52;97880.41;5068021;28;20111;-22
2022/02/17 01:13:29;;;;;;;0.30;0.30;;;;;;;11.63;87.85;97877.84;5065493;28;20372;-22
2022/02/17 01:15:54;;;;;;;0.40;0.40;;;;;;;11.65;87.35;97871.56;5071662;28;20027;-21
2022/02/17 01:18:19;;;;;;;0.88;0.70;;;;;;;11.65;87.30;97870.72;5065216;28;20024;-22
2022/02/17 01:20:46;;;;;;;0.30;0.30;;;;;;;11.65;86.94;97870.72;5067673;28;20025;-22
2022/02/17 01:23:12;;;;;;;0.30;0.30;;;;;;;11.64;86.97;97880.41;5070561;28;20032;-20
2022/02/17 01:25:37;;;;;;;0.30;0.30;;;;;;;11.65;86.92;97876.84;5067641;28;20025;-22
2022/02/17 01:28:03;;;;;;;0.40;0.40;;;;;;;11.65;86.75;97899.75;5068882;28;20162;-23
2022/02/17 01:30:29;;;;;;;0.30;0.30;;;;;;;11.65;86.48;97903.25;5067633;28;20028;-22
2022/02/17 01:32:54;;;;;;;0.32;0.30;;;;;;;11.65;86.80;97918.22;5067001;28;20877;-22
2022/02/17 01:35:20;;;;;;;0.35;0.35;;;;;;;11.67;86.18;97926.91;5068394;28;20433;-21
2022/02/17 01:37:46;;;;;;;0.32;0.30;;;;;;;11.68;86.05;97947.94;5068887;28;21025;-22
2022/02/17 01:40:12;;;;;;;0.30;0.30;;;;;;;11.70;85.87;97954.94;5067955;28;20111;-23
2022/02/17 01:42:38;;;;;;;0.30;0.30;;;;;;;11.71;86.11;97967.19;5070123;28;20482;-22
2022/02/17 01:45:05;;;;;;;0.40;0.40;;;;;;;11.71;85.77;97972.47;5072300;28;20032;-22
2022/02/17 01:47:31;;;;;;;1.45;0.77;;;;;;;11.73;85.84;98002.25;5071659;28;20111;-22
2022/02/17 01:49:56;;;;;;;0.60;0.60;;;;;;;11.72;85.74;98019.91;5073542;28;20112;-23
2022/02/17 01:52:21;;;;;;;1.75;0.52;;;;;;;11.73;85.10;98021.59;5068751;28;20017;-22
2022/02/17 01:54:47;;;;;;;0.85;0.50;;;;;;;11.72;85.00;98000.56;5068067;28;20038;-22
2022/02/17 01:57:21;;;;;;;0.73;0.50;;;;;;;11.70;84.74;98018.31;5065928;28;20501;-22
2022/02/17 01:59:46;;;;;;;2.03;0.57;;;;;;;11.67;83.48;98021.94;5064428;28;20078;-21
2022/02/17 02:02:12;;;;;;;2.00;0.50;;;;;;;11.68;84.17;98026.31;5065005;28;20028;-22
2022/02/17 02:04:38;;;;;;;1.10;0.80;;;;;;;11.65;83.54;98039.69;5048541;28;20037;-22
2022/02/17 02:07:05;;;;;;;0.75;0.50;;;;;;;11.63;83.36;98021.28;5067066;28;20024;-22
2022/02/17 02:09:31;;;;;;;1.80;0.73;;;;;;;11.62;83.24;98034.56;5068565;28;20051;-22
2022/02/17 02:11:57;;;;;;;0.70;0.50;;;;;;;11.57;83.38;98013.69;5065611;28;20067;-22
2022/02/17 02:14:23;;;;;;;3.15;0.60;;;;;;;11.57;82.69;98041.91;5066880;28;20486;-23
2022/02/17 02:16:48;;;;;;;2.40;0.80;;;;;;;11.53;82.67;98078.16;5066482;28;20020;-22
2022/02/17 02:19:14;;;;;;;1.10;0.70;;;;;;;11.51;82.70;98053.66;5067825;28;20021;-23
2022/02/17 02:21:39;;;;;;;1.38;0.57;;;;;;;11.47;82.61;98068.78;5068078;28;20237;-22
2022/02/17 02:24:05;;;;;;;1.40;0.80;;;;;;;11.43;82.06;98043.50;5066421;28;20371;-22
2022/02/17 02:26:30;;;;;;;1.58;0.55;;;;;;;11.36;81.58;98018.38;5067119;28;20024;-23
2022/02/17 02:28:56;;;;;;;2.50;1.02;;;;;;;11.33;81.46;97998.28;5068574;28;20470;-22
2022/02/17 02:31:22;;;;;;;0.85;0.82;;;;;;;11.27;81.03;97999.47;5070470;28;20165;-22
2022/02/17 02:33:48;;;;;;;0.98;0.80;;;;;;;11.21;80.78;97989.28;5070366;28;20101;-21
2022/02/17 02:36:14;;;;;;;1.65;1.20;;;;;;;11.16;80.65;97991.28;5070700;28;20075;-23
2022/02/17 02:38:39;;;;;;;1.38;0.68;;;;;;;11.12;80.23;98008.22;5071840;28;20020;-23
2022/02/17 02:41:05;;;;;;;1.85;0.80;;;;;;;11.06;80.41;97998.88;5071818;28;20083;-22
2022/02/17 02:43:31;;;;;;;1.13;0.70;;;;;;;11.00;79.89;97993.91;5070246;28;20040;-22
2022/02/17 02:45:56;;;;;;;1.25;0.77;;;;;;;10.95;80.27;98006.50;5070968;28;20020;-22
2022/02/17 02:48:21;;;;;;;1.65;1.00;;;;;;;10.89;80.20;98005.03;5069601;28;20502;-22
2022/02/17 02:50:47;;;;;;;1.65;0.88;;;;;;;10.86;80.39;98027.16;5070793;28;20026;-22
2022/02/17 02:53:16;;;;;;;13.25;2.15;;;;;;;10.82;80.62;98043.22;5070663;28;20403;-22
2022/02/17 02:55:46;;;;;;;3.33;1.77;;;;;;;10.74;80.29;98068.19;5071431;28;20020;-20
2022/02/17 02:58:13;;;;;;;1.83;1.10;;;;;;;10.70;80.93;98057.91;5068790;28;20108;-22
2022/02/17 03:00:42;;;;;;;4.65;1.00;;;;;;;10.62;81.12;98059.16;5071078;28;20024;-22
2022/02/17 03:03:08;;;;;;;4.10;1.30;;;;;;;10.60;81.00;98076.81;5067460;28;20504;-22
2022/02/17 03:05:33;;;;;;;4.20;1.30;;;;;;;10.55;81.27;98081.47;5070372;28;20021;-22
2022/02/17 03:07:59;;;;;;;3.25;1.35;;;;;;;10.50;81.34;98088.75;5070838;28;20025;-22
2022/02/17 03:10:27;;;;;;;4.35;1.42;;;;;;;10.47;81.45;98088.91;5071477;28;20071;-22
2022/02/17 03:12:53;;;;;;;4.03;1.30;;;;;;;10.38;81.40;98084.94;5067283;28;20036;-22
2022/02/17 03:15:20;;;;;;;3.05;1.27;;;;;;;10.37;81.77;98057.72;5069853;28;20020;-22
2022/02/17 03:17:46;;;;;;;4.38;1.10;;;;;;;10.30;81.55;98039.69;5070713;28;20205;-22
2022/02/17 03:20:11;;;;;;;3.38;1.05;;;;;;;10.24;81.73;98051.38;5071469;28;20036;-22
2022/02/17 03:22:38;;;;;;;1.90;1.00;;;;;;;10.23;81.38;98057.53;5070705;28;20474;-22
2022/02/17 03:25:08;;;;;;;1.20;0.90;;;;;;;10.19;81.60;98048.09;5070537;28;20059;-22
2022/02/17 03:27:33;;;;;;;1.20;0.93;;;;;;;10.11;81.56;98057.22;5069246;28;20120;-22
2022/02/17 03:29:59;;;;;;;1.55;0.82;;;;;;;10.07;81.61;98055.66;5066006;28;20020;-22
2022/02/17 03:32:24;;;;;;;3.15;0.98;;;;;;;10.03;81.52;98058.56;5068958;28;20466;-23
2022/02/17 03:34:49;;;;;;;2.42;0.93;;;;;;;9.99;81.70;98061.34;5070978;28;20039;-23
2022/02/17 03:37:15;;;;;;;1.00;0.52;;;;;;;9.95;81.96;98069.44;5069667;28;20119;-21
2022/02/17 03:39:40;;;;;;;3.40;0.68;;;;;;;9.93;81.90;98076.56;5069862;28;20267;-22
2022/02/17 03:42:06;;;;;;;1.00;0.65;;;;;;;9.88;81.57;98072.38;5069895;28;20035;-21
2022/02/17 03:44:32;;;;;;;1.40;0.80;;;;;;;9.84;81.56;98105.03;5066102;28;20056;-22
2022/02/17 03:46:57;;;;;;;1.75;0.73;;;;;;;9.74;81.40;98124.84;5069476;28;20024;-22
2022/02/17 03:49:23;;;;;;;1.42;0.80;;;;;;;9.73;81.37;98125.75;5068041;28;20040;-22
2022/02/17 03:51:49;;;;;;;2.67;0.60;;;;;;;9.69;81.50;98137.34;5069095;28;20021;-22
2022/02/17 03:54:14;;;;;;;0.95;0.63;;;;;;;9.60;81.11;98115.78;5068978;28;20056;-22
2022/02/17 03:56:40;;;;;;;0.50;0.50;;;;;;;9.60;81.30;98122.81;5069817;28;20032;-22
2022/02/17 03:59:07;;;;;;;0.68;0.68;;;;;;;9.56;81.25;98134.41;5063897;28;20044;-22
2022/02/17 04:01:34;;;;;;;3.00;0.70;;;;;;;9.48;81.44;98134.78;5066067;28;20028;-22
2022/02/17 04:04:01;;;;;;;1.50;0.60;;;;;;;9.43;81.38;98106.03;5069017;28;20046;-22
2022/02/17 04:06:26;;;;;;;1.10;0.57;;;;;;;9.42;81.53;98116.63;5067999;28;20040;-22
2022/02/17 04:08:51;;;;;;;1.50;0.60;;;;;;;9.35;81.04;98126.59;5069285;28;20035;-21
2022/02/17 04:11:17;;;;;;;1.60;0.70;;;;;;;9.31;81.48;98125.84;5067845;28;20032;-22
2022/02/17 04:13:42;;;;;;;0.85;0.75;;;;;;;9.29;81.18;98140.88;5067709;28;20044;-22
2022/02/17 04:16:08;;;;;;;0.98;0.60;;;;;;;9.26;81.33;98138.38;5068865;28;20020;-23
2022/02/17 04:18:33;;;;;;;4.20;1.00;;;;;;;9.17;81.13;98147.50;5070370;28;20031;-23
2022/02/17 04:20:58;;;;;;;2.97;0.85;;;;;;;9.16;81.40;98143.19;5067799;28;20032;-22
2022/02/17 04:23:24;;;;;;;0.93;0.75;;;;;;;9.15;81.24;98156.41;5071809;28;20026;-22
2022/02/17 04:25:49;;;;;;;2.03;0.85;;;;;;;9.10;81.64;98143.44;5071832;28;20060;-22
2022/02/17 04:28:15;;;;;;;2.35;1.33;;;;;;;9.06;81.55;98158.50;5067264;28;20032;-23
2022/02/17 04:30:40;;;;;;;1.15;0.95;;;;;;;9.04;81.71;98176.09;5066180;28;20032;-23
2022/02/17 04:33:05;;;;;;;3.50;1.85;;;;;;;9.02;81.83;98211.28;5064302;28;20036;-22
2022/02/17 04:35:31;;;;;;;2.05;0.77;;;;;;;9.00;81.86;98219.22;5067171;28;20105;-22
2022/02/17 04:37:57;;;;;;;1.60;0.70;;;;;;;8.96;81.80;98218.53;5068999;28;20103;-23
2022/02/17 04:42:18;;;;;;;1.27;0.80;;;;;;;8.94;81.94;98222.13;5066744;28;20030;-22
2022/02/17 04:43:09;;;;;;;2.22;0.70;;;;;;;8.89;82.10;98256.50;5058321;28;20340;-22
2022/02/17 04:45:35;;;;;;;2.53;1.15;;;;;;;8.81;81.62;98248.91;5067419;28;20021;-22
2022/02/17 04:48:03;;;;;;;3.53;0.82;;;;;;;8.78;81.58;98253.44;5068011;28;20052;-21
2022/02/17 04:50:28;;;;;;;1.23;0.63;;;;;;;8.73;81.30;98246.59;5072258;28;20056;-22
2022/02/17 04:52:54;;;;;;;1.85;0.80;;;;;;;8.65;81.35;98250.47;5067122;28;20575;-22
2022/02/17 04:55:19;;;;;;;2.78;0.60;;;;;;;8.61;81.28;98231.34;5070504;28;20046;-22
2022/02/17 04:57:45;;;;;;;1.77;0.70;;;;;;;8.59;81.34;98222.66;5068845;28;20485;-22
2022/02/17 05:00:13;;;;;;;2.60;1.00;;;;;;;8.53;81.35;98196.59;5065179;28;20103;-22
2022/02/17 05:02:38;;;;;;;2.88;1.33;;;;;;;8.48;81.30;98199.41;5066381;28;20068;-22
2022/02/17 05:05:04;;;;;;;1.02;0.60;;;;;;;8.43;81.51;98256.53;5064561;28;20613;-22
2022/02/17 05:07:30;;;;;;;1.33;0.50;;;;;;;8.39;81.30;98242.66;5070298;28;20558;-23
2022/02/17 05:09:55;;;;;;;2.30;0.80;;;;;;;8.37;81.48;98251.53;5064321;28;20073;-22
2022/02/17 05:12:21;;;;;;;0.93;0.77;;;;;;;8.32;81.17;98226.31;5067511;28;20081;-22
2022/02/17 05:14:46;;;;;;;3.00;0.68;;;;;;;8.28;81.11;98211.59;5068752;28;20020;-22
2022/02/17 05:17:11;;;;;;;0.75;0.60;;;;;;;8.24;81.46;98222.25;5064866;28;20112;-23
2022/02/17 05:19:37;;;;;;;0.70;0.60;;;;;;;8.21;81.37;98233.75;5069727;28;20394;-21
2022/02/17 05:22:02;;;;;;;0.68;0.60;;;;;;;8.21;81.34;98250.34;5070783;28;20107;-22
2022/02/17 05:24:28;;;;;;;1.17;0.70;;;;;;;8.20;81.73;98281.91;5068042;28;20032;-22
2022/02/17 05:26:54;;;;;;;1.83;0.70;;;;;;;8.16;81.66;98278.53;5068565;28;20037;-23
2022/02/17 05:29:19;;;;;;;2.45;0.80;;;;;;;8.13;81.61;98293.56;5055317;28;20103;-22
2022/02/17 05:31:45;;;;;;;2.70;0.77;;;;;;;8.11;81.31;98314.63;5066987;28;20539;-23
2022/02/17 05:34:10;;;;;;;1.20;0.75;;;;;;;8.04;80.65;98316.59;5051674;28;20550;-23
2022/02/17 05:36:35;;;;;;;3.13;1.15;;;;;;;8.00;80.19;98367.50;5068637;28;20036;-22
2022/02/17 05:39:01;;;;;;;4.28;1.35;;;;;;;7.99;80.32;98326.44;5068459;28;20392;-22
2022/02/17 05:41:26;;;;;;;3.78;1.10;;;;;;;7.92;80.39;98338.94;5068802;28;20125;-22
2022/02/17 05:43:51;;;;;;;3.63;1.10;;;;;;;7.94;80.29;98378.25;5067944;28;20039;-23
2022/02/17 05:46:17;;;;;;;3.00;1.35;;;;;;;7.91;80.37;98381.81;5064934;28;20021;-22
2022/02/17 05:48:42;;;;;;;4.32;1.15;;;;;;;7.91;80.38;98365.22;5068987;28;20379;-23
2022/02/17 05:51:07;;;;;;;3.65;1.40;;;;;;;7.89;80.42;98377.53;5069893;28;20492;-23
2022/02/17 05:53:33;;;;;;;3.70;0.95;;;;;;;7.88;80.51;98388.94;5070827;28;20024;-22
2022/02/17 05:55:58;;;;;;;4.13;1.10;;;;;;;7.81;80.23;98404.91;5064936;28;20085;-22
2022/02/17 05:58:23;;;;;;;3.55;1.55;;;;;;;7.80;80.37;98413.69;5064710;28;20037;-21
2022/02/17 06:00:49;;;;;;;2.70;1.23;;;;;;;7.77;80.19;98403.28;5071501;28;20367;-23
2022/02/17 06:03:14;;;;;;;4.68;1.42;;;;;;;7.71;80.37;98406.13;5072002;28;20393;-22
2022/02/17 06:05:40;;;;;;;3.40;0.88;;;;;;;7.66;79.99;98390.53;5074335;28;20399;-23
2022/02/17 06:08:07;;;;;;;3.70;1.50;;;;;;;7.65;80.26;98409.81;5072025;28;20036;-23
2022/02/17 06:10:32;;;;;;;2.35;1.10;;;;;;;7.62;79.94;98414.31;5072554;28;20028;-22
2022/02/17 06:12:58;;;;;;;3.22;1.10;;;;;;;7.57;80.26;98430.22;5072951;28;20030;-23
2022/02/17 06:15:23;;;;;;;3.08;1.05;;;;;;;7.56;80.48;98437.22;5074456;28;20034;-22
2022/02/17 06:17:49;;;;;;;2.13;0.73;;;;;;;7.52;80.48;98460.97;5073674;28;20020;-23
2022/02/17 06:20:14;;;;;;;2.28;0.90;;;;;;;7.49;79.84;98429.59;5076627;28;20273;-23
2022/02/17 06:22:47;;;;;;;3.35;1.25;;;;;;;7.47;79.83;98447.16;5072414;28;20043;-23
2022/02/17 06:25:14;;;;;;;5.03;1.08;;;;;;;7.40;79.60;98451.75;5074807;28;20072;-22
2022/02/17 06:27:39;;;;;;;0.80;0.75;;;;;;;7.36;79.06;98447.47;5071196;28;20103;-22
2022/02/17 06:30:05;;;;;;;3.45;1.40;;;;;;;7.36;79.20;98460.59;5072271;28;20489;-23
2022/02/17 06:32:31;;;;;;;4.00;1.35;;;;;;;7.34;79.71;98475.53;5070563;28;20016;-23
2022/02/17 06:34:56;;;;;;;3.28;0.98;;;;;;;7.33;79.91;98477.28;5074502;28;20016;-22
2022/02/17 06:37:22;;;;;;;3.25;0.98;;;;;;;7.25;79.53;98495.88;5071328;28;20070;-23
2022/02/17 06:39:47;;;;;;;1.92;1.17;;;;;;;7.26;79.63;98505.47;5072906;28;20142;-20
2022/02/17 06:42:12;;;;;;;1.75;0.95;;;;;;;7.25;79.87;98489.78;5071770;28;20107;-23
2022/02/17 06:44:38;;;;;;;2.42;0.90;;;;;;;7.23;80.22;98496.84;5074427;28;20103;-21
2022/02/17 06:47:03;;;;;;;2.78;1.02;;;;;;;7.20;80.46;98508.25;5072273;28;20028;-23
2022/02/17 06:49:29;;;;;;;2.55;0.98;;;;;;;7.17;80.12;98513.63;5075544;28;20381;-22
2022/02/17 06:51:55;;;;;;;2.97;0.82;;;;;;;7.10;79.57;98505.06;5074218;28;20136;-21
2022/02/17 06:54:21;;;;;;;1.15;0.90;;;;;;;7.08;79.56;98514.75;5074943;28;20537;-22
2022/02/17 06:56:46;;;;;;;4.40;1.17;;;;;;;7.04;79.34;98500.03;5075980;28;20028;-22
2022/02/17 06:59:11;;;;;;;3.47;1.23;;;;;;;7.05;79.30;98493.88;5076865;28;20021;-23
2022/02/17 07:01:37;;;;;;;3.33;1.48;;;;;;;7.00;79.10;98485.28;5071523;28;20039;-22
2022/02/17 07:04:02;;;;;;;1.60;1.00;;;;;;;6.98;78.70;98493.19;5074721;28;20047;-23
2022/02/17 07:06:28;;;;;;;5.95;1.52;;;;;;;6.96;78.83;98520.31;5073945;28;20493;-22
2022/02/17 07:08:53;;;;;;;1.80;1.10;;;;;;;6.95;78.61;98524.72;5066826;28;20036;-23
2022/02/17 07:11:19;;;;;;;1.80;0.95;;;;;;;6.88;78.75;98499.59;5071543;28;20025;-22
2022/02/17 07:13:44;;;;;;;2.10;1.23;;;;;;;6.90;78.78;98484.66;5070082;28;20379;-23
2022/02/17 07:16:10;;;;;;;3.47;1.15;;;;;;;6.88;78.15;98531.03;5074165;28;20027;-23
2022/02/17 07:18:36;;;;;;;3.38;1.33;;;;;;;6.84;78.39;98495.34;5071925;28;20111;-22
2022/02/17 07:21:01;;;;;;;3.60;0.88;;;;;;;6.84;78.20;98500.59;5070949;28;20103;-23
2022/02/17 07:23:27;;;;;;;1.17;0.80;;;;;;;6.84;78.04;98513.69;5070403;28;20636;-23
2022/02/17 07:25:53;;;;;;;2.25;1.00;;;;;;;6.79;78.12;98533.03;5073677;28;20259;-23
2022/02/17 07:28:22;;;;;;;2.45;0.75;;;;;;;6.83;77.98;98538.19;5071478;28;20028;-23
2022/02/17 07:30:48;;;;;;;1.17;0.80;;;;;;;6.83;78.92;98567.84;5069679;28;20021;-23
2022/02/17 07:33:13;;;;;;;1.55;0.77;;;;;;;6.78;78.08;98564.50;5069572;28;20029;-23
2022/02/17 07:35:39;;;;;;;2.38;0.90;;;;;;;6.76;78.29;98567.16;5068413;28;20025;-23
2022/02/17 07:38:06;;;;;;;2.10;0.73;;;;;;;6.78;78.64;98572.38;5069862;28;20030;-23
2022/02/17 07:40:31;;;;;;;1.40;1.23;;;;;;;6.76;78.43;98596.00;5072651;28;20035;-23
2022/02/17 07:42:57;;;;;;;2.58;0.88;;;;;;;6.74;78.35;98589.91;5074445;28;20032;-23
2022/02/17 07:45:23;;;;;;;1.80;0.80;;;;;;;6.75;78.17;98601.28;5073635;28;20027;-22
2022/02/17 07:47:49;;;;;;;1.95;0.90;;;;;;;6.72;78.68;98586.50;5074591;28;20123;-23
2022/02/17 07:50:16;;;;;;;2.88;1.00;;;;;;;6.74;78.36;98596.94;5058517;28;20023;-22
2022/02/17 07:52:42;;;;;;;4.43;1.60;;;;;;;6.70;78.49;98592.69;5068206;28;20051;-23
2022/02/17 07:55:08;;;;;;;3.05;1.20;;;;;;;6.71;78.01;98591.78;5072980;28;20023;-23
2022/02/17 07:57:34;;;;;;;3.95;1.10;;;;;;;6.70;78.55;98596.13;5071210;28;20398;-22
2022/02/17 07:59:59;;;;;;;4.30;1.60;;;;;;;6.67;78.36;98591.84;5074635;28;20115;-23
2022/02/17 08:02:25;;;;;;;3.28;1.33;;;;;;;6.68;78.58;98595.34;5069693;28;20020;-23
2022/02/17 08:04:50;;;;;;;3.83;1.40;;;;;;;6.66;78.88;98598.00;5071446;28;20459;-23
2022/02/17 08:07:15;;;;;;;3.28;1.30;;;;;;;6.63;78.58;98595.44;5073284;28;20093;-22
2022/02/17 08:09:41;;;;;;;6.18;1.77;;;;;;;6.65;79.27;98611.13;5072071;28;20112;-23
2022/02/17 08:12:06;;;;;;;4.78;1.33;;;;;;;6.67;78.76;98620.66;5068655;28;20125;-23
2022/02/17 08:14:32;;;;;;;3.65;1.38;;;;;;;6.68;79.07;98617.13;5067453;28;20056;-22
2022/02/17 08:16:57;;;;;;;4.80;1.50;;;;;;;6.70;79.28;98624.97;5066847;28;20416;-22
2022/02/17 08:19:23;;;;;;;4.43;1.73;;;;;;;6.73;79.39;98624.03;5069517;28;20371;-23
2022/02/17 08:21:48;;;;;;;3.05;1.88;;;;;;;6.73;79.18;98632.75;5070506;28;20587;-22
2022/02/17 08:24:15;;;;;;;4.75;1.50;;;;;;;6.78;78.74;98645.72;5070928;28;20024;-22
2022/02/17 08:26:41;;;;;;;2.30;1.92;;;;;;;6.78;79.05;98644.00;5067957;28;20497;-22
2022/02/17 08:29:07;;;;;;;3.80;1.48;;;;;;;6.82;78.53;98654.34;5069238;28;20095;-23
2022/02/17 08:31:32;;;;;;;2.15;1.35;;;;;;;6.86;78.27;98656.00;5069817;28;20115;-22
2022/02/17 08:34:03;;;;;;;2.22;0.93;;;;;;;6.90;78.48;98655.88;5070597;28;20471;-22
2022/02/17 08:36:32;;;;;;;2.38;1.00;;;;;;;6.92;78.35;98651.47;5067749;28;20035;-22
2022/02/17 08:38:58;;;;;;;4.30;1.27;;;;;;;6.97;78.92;98653.09;5068951;28;20031;-23
2022/02/17 08:41:23;;;;;;;8.48;1.75;;;;;;;6.99;78.67;98672.25;5070624;28;20390;-22
2022/02/17 08:43:49;;;;;;;4.00;1.52;;;;;;;7.02;77.92;98683.53;5073002;28;20016;-23
2022/02/17 08:46:14;;;;;;;5.47;1.45;;;;;;;7.04;77.77;98675.63;5067623;28;20459;-22
2022/02/17 08:48:40;;;;;;;4.95;1.58;;;;;;;7.05;77.46;98679.97;5069550;28;20093;-23
2022/02/17 08:51:05;;;;;;;4.30;1.60;;;;;;;7.09;78.33;98665.88;5067410;28;20046;-22
2022/02/17 08:53:31;;;;;;;1.90;0.98;;;;;;;7.12;77.98;98686.78;5068941;28;20016;-23
2022/02/17 08:55:56;;;;;;;5.65;2.13;;;;;;;7.13;77.01;98695.47;5068560;28;20017;-23
2022/02/17 08:58:22;;;;;;;2.63;1.35;;;;;;;7.17;76.52;98692.75;5071649;28;20016;-23
2022/02/17 09:00:47;;;;;;;1.67;1.23;;;;;;;7.19;76.16;98684.84;5070399;28;20020;-22
2022/02/17 09:03:13;;;;;;;4.47;1.98;;;;;;;7.21;76.58;98688.28;5069234;28;20055;-23
2022/02/17 09:05:39;;;;;;;5.15;2.05;;;;;;;7.26;76.78;98702.13;5068701;28;20616;-23
2022/02/17 09:08:06;;;;;;;5.72;3.63;;;;;;;7.30;77.22;98709.00;5068141;28;20019;-23
2022/02/17 09:10:31;;;;;;;8.18;3.83;;;;;;;7.28;75.69;98709.97;5072305;28;20466;-21
2022/02/17 09:12:56;;;;;;;6.13;3.53;;;;;;;7.33;76.17;98734.28;5072188;28;20031;-22
2022/02/17 09:15:22;;;;;;;7.40;3.03;;;;;;;7.36;75.92;98738.59;5068027;28;20024;-22
2022/02/17 09:17:48;;;;;;;6.55;2.78;;;;;;;7.38;76.04;98736.78;5069869;28;20164;-22
2022/02/17 09:20:15;;;;;;;6.25;2.55;;;;;;;7.40;76.16;98732.38;5069729;28;20023;-23
2022/02/17 09:22:44;;;;;;;4.32;1.88;;;;;;;7.41;75.62;98744.56;5065538;28;20544;-22
2022/02/17 09:25:10;;;;;;;8.45;2.47;;;;;;;7.40;74.86;98748.13;5069107;28;20021;-22
2022/02/17 09:27:35;;;;;;;5.57;2.00;;;;;;;7.43;75.23;98750.63;5071751;28;20051;-23
2022/02/17 09:30:03;;;;;;;3.63;1.83;;;;;;;7.46;75.13;98760.19;5052931;28;20112;-22
2022/02/17 09:32:28;;;;;;;4.43;1.80;;;;;;;7.47;75.72;98762.75;5049152;28;20119;-23
2022/02/17 09:34:54;;;;;;;7.18;1.90;;;;;;;7.49;74.73;98779.31;5068698;28;20423;-23
2022/02/17 09:37:19;;;;;;;3.28;1.65;;;;;;;7.47;74.74;98789.00;5068070;28;20088;-23
2022/02/17 09:39:44;;;;;;;4.93;2.30;;;;;;;7.49;74.02;98781.94;5064682;28;20394;-23
2022/02/17 09:42:10;;;;;;;4.32;1.95;;;;;;;7.50;75.05;98794.16;5066806;28;20020;-23
2022/02/17 09:44:35;;;;;;;5.82;1.90;;;;;;;7.55;75.23;98812.41;5071625;28;20070;-23
2022/02/17 09:47:03;;;;;;;9.82;1.98;;;;;;;7.55;74.67;98815.91;5071449;28;20016;-23
2022/02/17 09:49:30;;;;;;;5.18;2.20;;;;;;;7.58;75.45;98817.56;5067975;28;20033;-23
2022/02/17 09:51:56;;;;;;;2.60;1.50;;;;;;;7.58;74.24;98828.91;5070150;28;20454;-22
2022/02/17 09:54:22;;;;;;;6.68;1.70;;;;;;;7.66;75.22;98833.09;5070294;28;20051;-23
2022/02/17 09:56:47;;;;;;;4.30;1.38;;;;;;;7.68;75.37;98836.56;5069682;28;20052;-23
2022/02/17 09:59:13;;;;;;;6.47;1.58;;;;;;;7.68;74.62;98837.41;5066668;28;20032;-23
2022/02/17 10:01:39;;;;;;;7.20;2.58;;;;;;;7.73;76.01;98853.03;5068584;28;20021;-22
2022/02/17 10:04:11;;;;;;;3.88;1.95;;;;;;;7.79;75.44;98854.63;5065822;28;20702;-23
2022/02/17 10:06:47;;;;;;;7.45;2.13;;;;;;;7.83;75.01;98864.13;5068110;28;20043;-23
2022/02/17 10:09:14;;;;;;;6.13;1.60;;;;;;;7.88;76.32;98862.28;5068800;28;20026;-23
2022/02/17 10:11:40;;;;;;;6.53;1.77;;;;;;;7.91;74.61;98866.56;5067547;28;20101;-24
2022/02/17 10:14:17;;;;;;;4.03;1.95;;;;;;;7.97;74.31;98882.13;5066036;28;20016;-22
2022/02/17 10:16:59;;;;;;;3.33;2.08;;;;;;;8.02;74.26;98880.25;5066209;28;20375;-22
2022/02/17 10:19:34;;;;;;;9.88;4.05;;;;;;;8.07;74.45;98885.41;5068303;28;20052;-22
2022/02/17 10:22:07;;;;;;;21.15;12.25;;;;;;;8.09;72.36;98897.56;5067440;28;20024;-23
2022/02/17 10:24:40;;;;;;;22.80;13.35;;;;;;;8.15;74.10;98891.28;5067267;28;20013;-22
2022/02/17 10:27:10;;;;;;;15.27;9.00;;;;;;;8.21;72.50;98916.53;5063444;28;20028;-23
2022/02/17 10:29:37;;;;;;;25.52;14.57;;;;;;;8.25;73.32;98915.53;5071099;28;20031;-23
2022/02/17 10:32:12;;;;;;;18.23;8.35;;;;;;;8.30;72.86;98918.88;5067236;28;20711;-23
2022/02/17 10:34:37;;;;;;;10.50;5.43;;;;;;;8.29;70.55;98901.41;5067194;28;20024;-23
2022/02/17 10:37:03;;;;;;;9.55;3.97;;;;;;;8.36;70.18;98922.25;5067909;28;20024;-22
2022/02/17 10:39:33;;;;;;;4.78;3.05;;;;;;;8.42;71.31;98940.47;5070213;28;20505;-22
2022/02/17 10:42:03;;;;;;;7.55;2.38;;;;;;;8.47;71.29;98970.09;5046954;28;20017;-23
2022/02/17 10:44:33;;;;;;;4.90;1.55;;;;;;;8.51;70.56;98957.75;5067332;28;20032;-22
2022/02/17 10:47:18;;;;;;;3.50;1.33;;;;;;;8.58;71.62;98972.47;5069027;28;20020;-22
2022/02/17 10:49:50;;;;;;;3.38;1.55;;;;;;;8.60;70.27;98973.25;5071537;28;20375;-22
2022/02/17 10:52:36;;;;;;;3.58;2.15;;;;;;;8.66;70.88;98959.97;5073658;28;20020;-22
2022/02/17 10:55:12;;;;;;;2.67;1.23;;;;;;;8.70;70.38;98963.34;5077948;28;20107;-22
2022/02/17 10:57:38;;;;;;;3.85;1.45;;;;;;;8.78;71.20;98968.41;5078402;28;20170;-23
2022/02/17 11:00:20;;;;;;;8.45;2.03;;;;;;;8.80;71.52;98963.97;5075936;28;20031;-23
2022/02/17 11:02:47;;;;;;;4.47;1.58;;;;;;;8.84;70.40;98974.31;5071388;28;21314;-23
2022/02/17 11:05:13;;;;;;;12.38;5.30;;;;;;;8.87;70.16;98977.78;5071264;28;20029;-23
2022/02/17 11:07:39;;;;;;;18.23;9.15;;;;;;;8.92;70.84;98973.25;5069854;28;20083;-23
2022/02/17 11:10:07;;;;;;;33.90;16.30;;;;;;;8.93;68.57;98972.31;5073970;28;20062;-22
2022/02/17 11:12:33;;;;;;;29.98;14.57;;;;;;;8.97;68.92;98985.34;5070898;28;20027;-21
2022/02/17 11:14:58;;;;;;;18.98;10.82;;;;;;;9.03;69.80;98999.25;5072048;28;20116;-23
2022/02/17 11:17:25;;;;;;;15.55;7.10;;;;;;;9.05;68.40;98992.16;5071146;28;20024;-23
2022/02/17 11:19:54;;;;;;;6.97;3.72;;;;;;;9.10;69.03;98988.47;5077955;28;20032;-23
2022/02/17 11:22:20;;;;;;;5.80;2.58;;;;;;;9.06;68.48;98996.50;5071473;28;20102;-23
2022/02/17 11:24:50;;;;;;;5.53;2.03;;;;;;;9.14;67.60;99001.53;5068012;28;20029;-24
2022/02/17 11:27:16;;;;;;;2.58;1.85;;;;;;;9.16;67.90;98989.19;5071242;28;20055;-23
2022/02/17 11:29:42;;;;;;;5.05;1.55;;;;;;;9.20;67.26;99001.34;5068546;28;20028;-23
2022/02/17 11:32:13;;;;;;;3.90;1.63;;;;;;;9.23;67.35;99017.03;5072488;28;20020;-23
2022/02/17 11:34:43;;;;;;;4.22;1.30;;;;;;;9.25;67.06;99009.97;5069562;28;20411;-22